createdAt,value
2023-12-28T00:00:26.596Z,-15.09
2023-12-28T00:03:31.004Z,-14.98
2023-12-28T00:06:34.161Z,-14.83
2023-12-28T00:09:37.807Z,-14.73
2023-12-28T00:12:41.950Z,-14.63
2023-12-28T00:15:45.069Z,-14.63
2023-12-28T00:18:48.163Z,-14.66
2023-12-28T00:21:51.406Z,-14.62
2023-12-28T00:24:54.864Z,-14.50
2023-12-28T00:27:58.958Z,-14.46
2023-12-28T00:31:03.090Z,-14.35
2023-12-28T00:34:07.229Z,-14.21
2023-12-28T00:37:11.184Z,-14.17
2023-12-28T00:40:14.777Z,-14.09
2023-12-28T00:43:18.375Z,-14.01
2023-12-28T00:46:22.197Z,-13.98
2023-12-28T00:49:26.186Z,-14.06
2023-12-28T00:52:31.036Z,-14.21
2023-12-28T00:55:34.713Z,-14.33
2023-12-28T00:58:42.438Z,-14.32
2023-12-28T01:01:46.298Z,-14.11
2023-12-28T01:04:49.856Z,-13.94
2023-12-28T01:07:53.639Z,-13.83
2023-12-28T01:10:57.400Z,-13.87
2023-12-28T01:14:01.085Z,-14.08
2023-12-28T01:17:05.351Z,-14.17
2023-12-28T01:20:08.809Z,-14.31
2023-12-28T01:23:11.818Z,-14.34
2023-12-28T01:26:18.826Z,-14.29
2023-12-28T01:29:22.366Z,-14.10
2023-12-28T01:32:25.330Z,-13.83
2023-12-28T01:35:29.221Z,-13.69
2023-12-28T01:38:32.938Z,-13.62
2023-12-28T01:41:37.059Z,-13.66
2023-12-28T01:44:40.074Z,-13.93
2023-12-28T01:47:44.870Z,-14.08
2023-12-28T01:50:49.042Z,-14.12
2023-12-28T01:53:55.391Z,-14.04
2023-12-28T01:57:01.000Z,-13.97
2023-12-28T02:00:06.284Z,-13.77
2023-12-28T02:03:19.817Z,-13.59
2023-12-28T02:06:26.586Z,-13.55
2023-12-28T02:09:29.691Z,-13.36
2023-12-28T02:12:33.139Z,-13.30
2023-12-28T02:15:36.509Z,-13.35
2023-12-28T02:18:48.612Z,-13.41
2023-12-28T02:21:53.060Z,-13.41
2023-12-28T02:25:15.566Z,-13.31
2023-12-28T02:28:19.308Z,-13.18
2023-12-28T02:31:41.578Z,-13.10
2023-12-28T02:34:48.700Z,-12.96
2023-12-28T02:37:55.478Z,-12.94
2023-12-28T02:41:00.844Z,-13.03
2023-12-28T02:44:04.559Z,-13.04
2023-12-28T02:47:07.653Z,-12.64
2023-12-28T02:50:10.695Z,-12.62
2023-12-28T02:53:15.169Z,-12.49
2023-12-28T02:56:18.917Z,-12.33
2023-12-28T02:59:22.994Z,-12.27
2023-12-28T03:02:26.850Z,-11.92
2023-12-28T03:05:30.057Z,-11.81
2023-12-28T03:08:34.077Z,-11.51
2023-12-28T03:11:36.875Z,-11.19
2023-12-28T03:14:40.611Z,-11.34
2023-12-28T03:17:44.868Z,-11.34
2023-12-28T03:21:13.569Z,-11.04
2023-12-28T03:24:17.137Z,-10.89
2023-12-28T03:27:20.268Z,-10.67
2023-12-28T03:30:23.402Z,-10.79
2023-12-28T03:33:27.531Z,-10.58
2023-12-28T03:36:31.195Z,-11.02
2023-12-28T03:39:59.657Z,-11.32
2023-12-28T03:43:05.581Z,-11.11
2023-12-28T03:46:09.224Z,-10.67
2023-12-28T03:49:12.464Z,-10.67
2023-12-28T03:52:15.966Z,-10.77
2023-12-28T03:55:19.715Z,-10.88
2023-12-28T03:58:23.642Z,-10.67
2023-12-28T04:01:29.510Z,-10.79
2023-12-28T04:04:32.668Z,-10.79
2023-12-28T04:07:36.719Z,-10.98
2023-12-28T04:10:40.262Z,-11.05
2023-12-28T04:13:43.237Z,-10.94
2023-12-28T04:16:47.502Z,-10.77
2023-12-28T04:19:51.656Z,-10.53
2023-12-28T04:22:55.855Z,-10.07
2023-12-28T04:26:00.739Z,-9.86
2023-12-28T04:29:04.975Z,-9.84
2023-12-28T04:32:09.394Z,-9.66
2023-12-28T04:35:12.833Z,-9.67
2023-12-28T04:38:17.088Z,-9.35
2023-12-28T04:41:20.851Z,-9.36
2023-12-28T04:44:24.265Z,-9.37
2023-12-28T04:47:27.303Z,-9.58
2023-12-28T04:50:30.718Z,-9.72
2023-12-28T04:53:35.526Z,-9.91
2023-12-28T04:56:39.084Z,-10.02
2023-12-28T04:59:42.514Z,-10.11
2023-12-28T05:02:46.124Z,-10.10
2023-12-28T05:05:50.104Z,-10.21
2023-12-28T05:08:54.302Z,-10.20
2023-12-28T05:11:57.412Z,-10.21
2023-12-28T05:15:00.752Z,-10.17
2023-12-28T05:18:29.080Z,-10.12
2023-12-28T05:21:32.843Z,-9.91
2023-12-28T05:24:37.048Z,-9.87
2023-12-28T05:27:41.665Z,-9.65
2023-12-28T05:30:45.695Z,-9.45
2023-12-28T05:33:52.206Z,-9.36
2023-12-28T05:36:56.683Z,-9.37
2023-12-28T05:40:00.670Z,-9.41
2023-12-28T05:43:05.352Z,-9.40
2023-12-28T05:46:08.341Z,-9.47
2023-12-28T05:49:11.910Z,-9.43
2023-12-28T05:52:20.603Z,-9.41
2023-12-28T05:55:24.706Z,-9.28
2023-12-28T05:58:27.726Z,-9.06
2023-12-28T06:01:31.428Z,-8.85
2023-12-28T06:04:35.795Z,-8.71
2023-12-28T06:07:38.913Z,-8.60
2023-12-28T06:10:42.075Z,-8.43
2023-12-28T06:13:45.254Z,-8.36
2023-12-28T06:16:48.282Z,-8.27
2023-12-28T06:19:51.871Z,-8.12
2023-12-28T06:22:57.619Z,-8.08
2023-12-28T06:26:07.519Z,-8.03
2023-12-28T06:29:15.191Z,-7.86
2023-12-28T06:32:22.289Z,-7.80
2023-12-28T06:35:29.564Z,-7.70
2023-12-28T06:38:33.470Z,-7.87
2023-12-28T06:41:37.041Z,-8.00
2023-12-28T06:44:40.265Z,-7.98
2023-12-28T06:47:43.842Z,-8.09
2023-12-28T06:50:47.036Z,-8.23
2023-12-28T06:53:51.604Z,-8.17
2023-12-28T06:56:54.595Z,-8.10
2023-12-28T07:00:01.470Z,-7.96
2023-12-28T07:03:05.468Z,-7.87
2023-12-28T07:06:10.688Z,-7.82
2023-12-28T07:09:16.328Z,-7.75
2023-12-28T07:12:22.132Z,-7.73
2023-12-28T07:15:26.813Z,-7.78
2023-12-28T07:18:30.812Z,-7.83
2023-12-28T07:21:34.656Z,-7.79
2023-12-28T07:24:38.450Z,-7.82
2023-12-28T07:27:41.649Z,-7.93
2023-12-28T07:30:45.459Z,-8.09
2023-12-28T07:34:00.226Z,-8.25
2023-12-28T07:37:06.755Z,-8.35
2023-12-28T07:40:10.127Z,-8.47
2023-12-28T07:43:13.192Z,-8.67
2023-12-28T07:46:16.328Z,-8.82
2023-12-28T07:49:19.705Z,-9.08
2023-12-28T07:52:23.450Z,-9.26
2023-12-28T07:55:27.833Z,-9.34
2023-12-28T07:58:30.759Z,-9.41
2023-12-28T08:01:35.292Z,-9.53
2023-12-28T08:04:39.282Z,-9.49
2023-12-28T08:07:42.814Z,-9.55
2023-12-28T08:10:48.444Z,-9.61
2023-12-28T08:13:52.811Z,-9.60
2023-12-28T08:16:59.583Z,-9.61
2023-12-28T08:20:03.620Z,-9.62
2023-12-28T08:23:17.195Z,-9.58
2023-12-28T08:26:25.509Z,-9.61
2023-12-28T08:29:29.078Z,-9.64
2023-12-28T08:32:33.518Z,-9.63
2023-12-28T08:35:37.441Z,-9.63
2023-12-28T08:38:41.558Z,-9.76
2023-12-28T08:41:45.299Z,-9.89
2023-12-28T08:44:52.602Z,-9.78
2023-12-28T08:47:57.134Z,-9.69
2023-12-28T08:51:02.968Z,-9.49
2023-12-28T08:54:10.902Z,-9.42
2023-12-28T08:57:16.231Z,-9.57
2023-12-28T09:00:20.013Z,-9.76
2023-12-28T09:03:25.108Z,-9.93
2023-12-28T09:06:28.736Z,-10.17
2023-12-28T09:09:32.480Z,-10.33
2023-12-28T09:12:36.494Z,-10.42
2023-12-28T09:15:41.240Z,-10.45
2023-12-28T09:18:46.042Z,-10.25
2023-12-28T09:21:49.790Z,-10.15
2023-12-28T09:24:54.142Z,-10.02
2023-12-28T09:27:58.308Z,-10.00
2023-12-28T09:31:06.289Z,-10.12
2023-12-28T09:34:10.247Z,-10.20
2023-12-28T09:37:14.101Z,-10.21
2023-12-28T09:40:17.374Z,-10.10
2023-12-28T09:43:27.260Z,-9.88
2023-12-28T09:46:30.853Z,-9.66
2023-12-28T09:49:35.277Z,-9.52
2023-12-28T09:52:38.323Z,-9.44
2023-12-28T09:55:43.101Z,-9.38
2023-12-28T09:58:50.558Z,-9.46
2023-12-28T10:01:57.336Z,-9.78
2023-12-28T10:05:01.149Z,-9.97
2023-12-28T10:08:05.774Z,-10.15
2023-12-28T10:11:12.877Z,-10.28
2023-12-28T10:14:16.721Z,-10.42
2023-12-28T10:17:20.634Z,-10.45
2023-12-28T10:20:24.318Z,-10.52
2023-12-28T10:23:27.559Z,-10.62
2023-12-28T10:26:32.267Z,-10.76
2023-12-28T10:29:36.431Z,-10.79
2023-12-28T10:32:44.214Z,-10.88
2023-12-28T10:35:48.426Z,-10.98
2023-12-28T10:38:55.319Z,-11.14
2023-12-28T10:42:01.506Z,-11.34
2023-12-28T10:45:09.615Z,-11.45
2023-12-28T10:48:14.648Z,-11.45
2023-12-28T10:51:22.597Z,-11.64
2023-12-28T10:54:34.054Z,-11.64
2023-12-28T10:57:57.707Z,-11.63
2023-12-28T11:01:06.895Z,-11.74
2023-12-28T11:04:40.967Z,-11.83
2023-12-28T11:07:45.713Z,-11.96
2023-12-28T11:10:53.028Z,-12.02
2023-12-28T11:13:57.925Z,-12.13
2023-12-28T11:17:03.628Z,-12.33
2023-12-28T11:20:08.387Z,-12.32
2023-12-28T11:23:14.083Z,-12.35
2023-12-28T11:26:22.561Z,-12.50
2023-12-28T11:29:34.299Z,-12.46
2023-12-28T11:32:38.668Z,-12.62
2023-12-28T11:35:43.141Z,-12.88
2023-12-28T11:38:47.205Z,-12.87
2023-12-28T11:42:14.415Z,-12.90
2023-12-28T11:45:19.537Z,-13.02
2023-12-28T11:48:28.764Z,-13.09
2023-12-28T11:51:33.668Z,-13.09
2023-12-28T11:54:40.581Z,-13.20
2023-12-28T11:57:44.288Z,-13.03
2023-12-28T12:00:49.764Z,-13.13
2023-12-28T12:03:53.433Z,-12.98
2023-12-28T12:07:09.613Z,-13.06
2023-12-28T12:10:17.819Z,-13.09
2023-12-28T12:13:21.203Z,-13.27
2023-12-28T12:16:27.773Z,-13.39
2023-12-28T12:19:32.299Z,-13.19
2023-12-28T12:22:35.917Z,-13.30
2023-12-28T12:25:43.209Z,-13.41
2023-12-28T12:28:46.679Z,-13.26
2023-12-28T12:31:54.741Z,-13.22
2023-12-28T12:34:59.154Z,-13.25
2023-12-28T12:38:02.965Z,-13.29
2023-12-28T12:41:06.172Z,-13.28
2023-12-28T12:44:12.315Z,-13.37
2023-12-28T12:47:16.627Z,-13.47
2023-12-28T12:50:22.027Z,-13.51
2023-12-28T12:53:25.851Z,-13.48
2023-12-28T12:56:31.839Z,-13.39
2023-12-28T12:59:36.175Z,-13.42
2023-12-28T13:02:42.626Z,-13.78
2023-12-28T13:05:46.549Z,-13.99
2023-12-28T13:08:51.285Z,-14.13
2023-12-28T13:11:54.601Z,-14.24
2023-12-28T13:15:01.302Z,-14.53
2023-12-28T13:18:05.647Z,-14.83
2023-12-28T13:21:12.218Z,-15.05
2023-12-28T13:24:22.594Z,-15.06
2023-12-28T13:27:27.660Z,-14.90
2023-12-28T13:30:31.953Z,-14.83
2023-12-28T13:33:50.774Z,-14.96
2023-12-28T13:37:09.726Z,-14.97
2023-12-28T13:40:17.819Z,-14.91
2023-12-28T13:45:15.393Z,-15.04
2023-12-28T13:48:31.924Z,-14.82
2023-12-28T13:51:48.847Z,-14.79
2023-12-28T13:54:53.484Z,-14.79
2023-12-28T13:57:57.769Z,-14.88
2023-12-28T14:01:06.117Z,-14.92
2023-12-28T14:04:10.785Z,-14.86
2023-12-28T14:07:17.477Z,-14.68
2023-12-28T14:10:21.135Z,-14.69
2023-12-28T14:13:25.001Z,-14.87
2023-12-28T14:16:29.289Z,-15.04
2023-12-28T14:19:33.997Z,-15.18
2023-12-28T14:22:38.564Z,-14.96
2023-12-28T14:25:41.988Z,-14.90
2023-12-28T14:28:46.885Z,-14.89
2023-12-28T14:31:50.691Z,-14.96
2023-12-28T14:34:54.476Z,-15.06
2023-12-28T14:37:58.777Z,-15.24
2023-12-28T14:41:03.520Z,-15.28
2023-12-28T14:44:07.199Z,-15.40
2023-12-28T14:47:15.766Z,-15.47
2023-12-28T14:50:18.995Z,-15.38
2023-12-28T14:53:25.667Z,-15.50
2023-12-28T14:56:36.460Z,-15.66
2023-12-28T14:59:48.233Z,-15.59
2023-12-28T15:02:51.367Z,-15.48
2023-12-28T15:05:54.778Z,-15.51
2023-12-28T15:08:57.791Z,-15.49
2023-12-28T15:12:01.186Z,-15.53
2023-12-28T15:15:05.584Z,-15.60
2023-12-28T15:18:12.424Z,-15.61
2023-12-28T15:21:16.439Z,-15.55
2023-12-28T15:24:23.195Z,-15.56
2023-12-28T15:27:26.846Z,-15.60
2023-12-28T15:30:30.455Z,-15.54
2023-12-28T15:33:33.476Z,-15.52
2023-12-28T15:36:36.916Z,-15.66
2023-12-28T15:39:40.199Z,-15.70
2023-12-28T15:42:45.789Z,-15.77
2023-12-28T15:45:51.378Z,-15.77
2023-12-28T15:48:55.712Z,-15.82
2023-12-28T15:52:00.063Z,-15.80
2023-12-28T15:55:04.630Z,-15.82
2023-12-28T15:58:07.855Z,-15.93
2023-12-28T16:01:11.757Z,-15.97
2023-12-28T16:04:14.859Z,-15.98
2023-12-28T16:07:19.014Z,-16.18
2023-12-28T16:10:22.927Z,-16.23
2023-12-28T16:13:26.698Z,-16.08
2023-12-28T16:16:30.032Z,-16.04
2023-12-28T16:19:34.073Z,-16.01
2023-12-28T16:22:37.800Z,-16.00
2023-12-28T16:25:41.144Z,-15.97
2023-12-28T16:28:44.585Z,-15.96
2023-12-28T16:31:47.487Z,-16.01
2023-12-28T16:34:50.574Z,-15.83
2023-12-28T16:37:54.862Z,-15.97
2023-12-28T16:40:58.622Z,-16.04
2023-12-28T16:44:01.859Z,-16.10
2023-12-28T16:47:06.021Z,-16.16
2023-12-28T16:50:09.485Z,-16.21
2023-12-28T16:53:13.862Z,-16.39
2023-12-28T16:56:17.961Z,-16.51
2023-12-28T16:59:22.174Z,-16.59
2023-12-28T17:02:25.818Z,-16.72
2023-12-28T17:05:29.734Z,-16.93
2023-12-28T17:08:33.661Z,-16.92
2023-12-28T17:11:37.382Z,-16.89
2023-12-28T17:14:40.582Z,-16.91
2023-12-28T17:17:44.241Z,-17.13
2023-12-28T17:20:48.263Z,-17.06
2023-12-28T17:23:54.277Z,-17.09
2023-12-28T17:27:08.097Z,-17.06
2023-12-28T17:30:17.083Z,-17.15
2023-12-28T17:33:23.707Z,-17.30
2023-12-28T17:36:28.847Z,-17.28
2023-12-28T17:39:32.105Z,-17.28
2023-12-28T17:42:40.031Z,-17.43
2023-12-28T17:45:50.307Z,-17.42
2023-12-28T17:48:57.365Z,-17.44
2023-12-28T17:52:06.402Z,-17.33
2023-12-28T17:55:10.853Z,-17.30
2023-12-28T17:58:15.070Z,-17.34
2023-12-28T18:01:19.441Z,-17.41
2023-12-28T18:04:23.612Z,-17.60
2023-12-28T18:07:27.316Z,-17.62
2023-12-28T18:10:31.598Z,-17.59
2023-12-28T18:13:35.321Z,-17.55
2023-12-28T18:16:39.622Z,-17.57
2023-12-28T18:19:43.417Z,-17.63
2023-12-28T18:22:47.449Z,-17.47
2023-12-28T18:25:51.160Z,-17.35
2023-12-28T18:28:54.618Z,-17.33
2023-12-28T18:31:58.635Z,-17.29
2023-12-28T18:35:02.249Z,-17.28
2023-12-28T18:38:06.379Z,-17.28
2023-12-28T18:41:09.355Z,-17.33
2023-12-28T18:44:13.256Z,-17.38
2023-12-28T18:47:17.262Z,-17.41
2023-12-28T18:50:21.969Z,-17.53
2023-12-28T18:53:25.638Z,-17.63
2023-12-28T18:56:28.932Z,-17.68
2023-12-28T18:59:32.036Z,-17.90
2023-12-28T19:02:35.805Z,-17.99
2023-12-28T19:05:40.205Z,-18.04
2023-12-28T19:08:44.172Z,-18.01
2023-12-28T19:11:47.017Z,-18.16
2023-12-28T19:14:50.978Z,-18.25
2023-12-28T19:17:54.516Z,-18.33
2023-12-28T19:20:59.870Z,-18.37
2023-12-28T19:24:02.909Z,-18.29
2023-12-28T19:27:06.695Z,-18.21
2023-12-28T19:30:10.520Z,-18.15
2023-12-28T19:33:13.963Z,-18.28
2023-12-28T19:36:17.066Z,-18.57
2023-12-28T19:39:22.146Z,-18.70
2023-12-28T19:42:25.970Z,-18.63
2023-12-28T19:45:30.134Z,-18.84
2023-12-28T19:48:33.884Z,-18.83
2023-12-28T19:51:38.117Z,-18.84
2023-12-28T19:54:41.213Z,-18.88
2023-12-28T19:57:45.020Z,-18.89
2023-12-28T20:00:48.190Z,-18.91
2023-12-28T20:03:51.971Z,-18.86
2023-12-28T20:06:56.601Z,-18.84
2023-12-28T20:10:01.317Z,-18.87
2023-12-28T20:13:04.590Z,-18.92
2023-12-28T20:16:08.930Z,-18.98
2023-12-28T20:19:13.714Z,-18.95
2023-12-28T20:22:17.656Z,-18.99
2023-12-28T20:25:21.598Z,-18.97
2023-12-28T20:28:24.833Z,-18.87
2023-12-28T20:31:30.507Z,-18.84
2023-12-28T20:34:33.720Z,-18.89
2023-12-28T20:37:37.631Z,-18.96
2023-12-28T20:40:41.329Z,-18.74
2023-12-28T20:43:48.331Z,-18.87
2023-12-28T20:46:52.216Z,-18.93
2023-12-28T20:49:55.321Z,-18.83
2023-12-28T20:52:59.292Z,-18.81
2023-12-28T20:56:03.570Z,-18.81
2023-12-28T20:59:07.213Z,-18.81
2023-12-28T21:02:10.186Z,-18.63
2023-12-28T21:05:14.000Z,-18.59
2023-12-28T21:08:17.755Z,-18.73
2023-12-28T21:11:20.998Z,-18.69
2023-12-28T21:14:25.536Z,-18.53
2023-12-28T21:17:29.164Z,-18.43
2023-12-28T21:20:32.899Z,-18.46
2023-12-28T21:23:36.639Z,-18.52
2023-12-28T21:26:40.736Z,-18.48
2023-12-28T21:29:43.748Z,-18.52
2023-12-28T21:32:47.460Z,-18.54
2023-12-28T21:35:51.290Z,-18.48
2023-12-28T21:38:54.546Z,-18.43
2023-12-28T21:41:57.627Z,-18.33
2023-12-28T21:45:03.746Z,-18.41
2023-12-28T21:48:08.655Z,-18.30
2023-12-28T21:51:12.729Z,-18.20
2023-12-28T21:54:16.886Z,-18.10
2023-12-28T21:57:20.608Z,-18.06
2023-12-28T22:00:24.316Z,-17.78
2023-12-28T22:03:28.255Z,-17.79
2023-12-28T22:06:32.151Z,-17.85
2023-12-28T22:09:37.805Z,-17.82
2023-12-28T22:12:40.739Z,-17.73
2023-12-28T22:15:44.264Z,-17.78
2023-12-28T22:18:48.652Z,-17.76
2023-12-28T22:21:53.460Z,-17.96
2023-12-28T22:24:56.586Z,-17.88
2023-12-28T22:28:00.251Z,-17.86
2023-12-28T22:31:04.051Z,-17.86
2023-12-28T22:34:07.904Z,-17.63
2023-12-28T22:37:11.187Z,-17.50
2023-12-28T22:40:15.375Z,-17.49
2023-12-28T22:43:18.850Z,-17.51
2023-12-28T22:46:22.669Z,-17.51
2023-12-28T22:49:25.840Z,-17.73
2023-12-28T22:52:29.024Z,-17.77
2023-12-28T22:55:32.676Z,-17.79
2023-12-28T22:58:36.417Z,-17.72
2023-12-28T23:01:40.569Z,-17.65
2023-12-28T23:04:52.441Z,-17.50
2023-12-28T23:07:59.324Z,-17.27
2023-12-28T23:11:05.245Z,-17.17
2023-12-28T23:14:09.016Z,-17.51
2023-12-28T23:17:13.197Z,-17.64
2023-12-28T23:20:16.900Z,-17.66
2023-12-28T23:23:19.863Z,-17.67
2023-12-28T23:26:23.829Z,-17.64
2023-12-28T23:29:26.642Z,-17.66
2023-12-28T23:32:30.413Z,-17.59
2023-12-28T23:35:34.627Z,-17.59
2023-12-28T23:38:38.300Z,-17.54
2023-12-28T23:41:42.384Z,-17.61
2023-12-28T23:44:45.418Z,-17.55
2023-12-28T23:47:49.524Z,-17.52
2023-12-28T23:50:53.182Z,-17.56
2023-12-28T23:53:57.272Z,-17.59
2023-12-28T23:57:03.273Z,-17.64
